Lafayette, IN (47904)

2:10 PM EDT on October 31, 2014 (GMT -0400)
APRSWXNET Lafayette IN US | Change Station
CLOSE
Current Station
Personal Weather Station
Location: Lafayette, IN
Elevation: 617 ft
Nearby Weather Stations
Active Advisory: Freeze Warning, Special Statement

Elev 617 ft 40.46 °N, 86.83 °W | Updated 46 minutes ago

Overcast
Overcast
40 °F
Feels Like 35 °F
N
7
Wind Variable Wind from NNW
Gusts 16.0 mph

Today
High -- | Low -- °F
--% Chance of Precip.
Yesterday
High -- | Low -- °F
Precip. -- in
8:16 AM 6:45 PM
First Quarter, 57% visible
Pressure 30.05 in
Visibility 10.0 miles
Clouds Mostly Cloudy 3400 ft
Mostly Cloudy 4400 ft
Windchill 35 °F
Dew Point 40 °F
Humidity 99%
Rainfall 0.05 in
Snow Depth Not available.
UV 2 out of 12
Pollen .10 out of 12
Air Quality Not available.
Flu Activity Not available.
METAR KLAF 311754Z 33018G28KT 10SM BKN034 BKN044 05/M02 A3004 RMK AO2 PK WND 34032/1741 UPB1658E00RAB00E15 SLP176 P0000 60002 T00501017 10050 20022 58004

More Conditions Fewer Conditions

Pressure 30.05 in
Visibility 10.0 miles
Clouds Mostly Cloudy 3400 ft
Mostly Cloudy 4400 ft
Windchill 35 °F
Dew Point 40 °F
Humidity 99%
Rainfall 0.05 in
Snow Depth Not available.
UV 2 out of 12
Pollen .10 out of 12
Air Quality Not available.
Flu Activity Not available.
METAR KLAF 311754Z 33018G28KT 10SM BKN034 BKN044 05/M02 A3004 RMK AO2 PK WND 34032/1741 UPB1658E00RAB00E15 SLP176 P0000 60002 T00501017 10050 20022 58004

More Conditions Fewer Conditions

10-Day Weather Forecast

Almanac

Astronomy

Oct. 31, 2014 Rise Set
Actual Time
Civil Twilight
Nautical Twilight
Astronomical Twilight
Moon
Length of Visible Light
Length of Day
Tomorrow will be .
, % of the Moon is Illuminated

Today's Extremes

State Highs State Lows

Community

WunderPhotos

Upload Photos

1,766,683 photos uploaded!

WunderBlogs® & News

Nearby

Air Quality

  Air Quality AQ Index Pollutant
Not available.

Snow Depth

Station Depth Elevation

Earthquake Activity

City Distance Mag. Time & Date
Minimum magnitude displayed is 2.5.

Coastal Water Temperatures

Place Temperature

Nearby Weather Stations